This is the latest recevied weather packets stored in our database for station/object W5HKR. If no packets are shown the sender has not sent any weather packets the latest 10 day(s).
| Time | Temp. | Humidity | Pressure | Rain* | Wind** | Luminosity | Snow |
|---|---|---|---|---|---|---|---|
| 1778026706 | 29.44° C | 71% | 978 hPa | 0 mm | - | - | - |
| 1778026405 | 18.33° C | 91% | 990.6 hPa | 0 mm | - | - | - |
| 1778026196 | 29.44° C | 70% | 977.4 hPa | 0 mm | - | - | - |
| 1778026106 | 29.44° C | 70% | 977.6 hPa | 0 mm | - | - | - |
| 1778025806 | 29.44° C | 70% | 977.9 hPa | 0 mm | - | - | - |
| 1778025506 | 18.33° C | 91% | 990.6 hPa | 0 mm | - | - | - |
| 1778025206 | 30° C | 68% | 977.3 hPa | 0 mm | - | - | - |
| 1778025116 | 18.33° C | 91% | 990.6 hPa | 0 mm | - | - | - |
| 1778024905 | 18.33° C | 91% | 990.6 hPa | 0 mm | - | - | - |
| 1778024606 | 18.33° C | 91% | 990.6 hPa | 0 mm | - | - | - |
| 1778024306 | 18.33° C | 91% | 990.6 hPa | 0 mm | - | - | - |
| 1778024038 | 30° C | 67% | 977.2 hPa | 0 mm | - | - | - |
| 1778024005 | 30° C | 67% | 977.6 hPa | 0 mm | - | - | - |
| 1778023706 | 30.56° C | 66% | 977.6 hPa | 0 mm | - | - | - |
| 1778023406 | 30.56° C | 67% | 977.4 hPa | 0 mm | - | - | - |
| 1778023107 | 31.11° C | 66% | 976.8 hPa | 0 mm | - | - | - |
| 1778022957 | 18.33° C | 91% | 990.6 hPa | 0 mm | - | - | - |
| 1778022806 | 18.33° C | 91% | 990.6 hPa | 0 mm | - | - | - |
| 1778022505 | 18.33° C | 91% | 990.6 hPa | 0 mm | - | - | - |
| 1778022205 | 31.11° C | 66% | 977.3 hPa | 0 mm | - | - | - |
| 1778021909 | 18.33° C | 91% | 990.6 hPa | 0 mm | - | - | - |
| 1778021876 | 18.33° C | 91% | 990.6 hPa | 0 mm | - | - | - |
| 1778021607 | 31.11° C | 65% | 977.1 hPa | 0 mm | - | - | - |
| 1778021306 | 31.11° C | 66% | 977.3 hPa | 0 mm | - | - | - |
| 1778021008 | 18.33° C | 91% | 990.6 hPa | 0 mm | - | - | - |
* Rain latest hour (hover to see other rain measurements)
** Current wind speed in m/s (hover to see current wind gust speed)